Terminal Aerodrome Forecast
Issued by NWS Cleveland, OH

Home | Current Version | Previous Version | Graphics & Text | Print | Product List | Glossary On
Versions: 1 2 3 4 5 6 7 8 9 10 11 12 13 14 15 16 17 18 19 20 21 22 23 24 25 26
497
FTUS41 KCLE 111532 AAB
TAFCLE
TAF AMD
KCLE 111532Z 1116/1218 31015G22KT P6SM -SN OVC045
      TEMPO 1116/1117 3SM -SHSN OVC025
     FM111700 30012G20KT 5SM -SHSN OVC035
      TEMPO 1117/1121 2SM -SHSN OVC025
     FM112300 28010KT P6SM OVC050
     FM120200 23007KT P6SM SCT050 BKN100=

USA.gov is the U.S. government's official web portal to all federal, state and local government web resources and services.